sensor_id;sensor_type;location;lat;lon;timestamp;temperature;humidity
13251;DHT22;6692;50.710;7.180;2022-09-03T00:00:13;19.20;99.90
13251;DHT22;6692;50.710;7.180;2022-09-03T00:02:13;19.10;99.90
13251;DHT22;6692;50.710;7.180;2022-09-03T00:04:17;19.10;99.90
13251;DHT22;6692;50.710;7.180;2022-09-03T00:06:20;19.10;99.70
13251;DHT22;6692;50.710;7.180;2022-09-03T00:08:20;19.00;99.70
13251;DHT22;6692;50.710;7.180;2022-09-03T00:10:24;18.90;99.80
13251;DHT22;6692;50.710;7.180;2022-09-03T00:12:25;18.90;99.90
13251;DHT22;6692;50.710;7.180;2022-09-03T00:14:25;18.90;99.90
13251;DHT22;6692;50.710;7.180;2022-09-03T00:16:27;18.90;99.90
13251;DHT22;6692;50.710;7.180;2022-09-03T00:18:28;18.80;99.90
13251;DHT22;6692;50.710;7.180;2022-09-03T00:20:32;18.80;99.90
13251;DHT22;6692;50.710;7.180;2022-09-03T00:22:33;18.70;99.90
13251;DHT22;6692;50.710;7.180;2022-09-03T00:24:34;18.70;99.90
13251;DHT22;6692;50.710;7.180;2022-09-03T00:26:34;18.80;99.90
13251;DHT22;6692;50.710;7.180;2022-09-03T00:28:40;18.80;99.90
13251;DHT22;6692;50.710;7.180;2022-09-03T00:30:41;18.90;99.90
13251;DHT22;6692;50.710;7.180;2022-09-03T00:32:42;18.90;99.90
13251;DHT22;6692;50.710;7.180;2022-09-03T00:34:44;19.00;99.90
13251;DHT22;6692;50.710;7.180;2022-09-03T00:36:44;19.00;99.90
13251;DHT22;6692;50.710;7.180;2022-09-03T00:38:44;19.00;99.90
13251;DHT22;6692;50.710;7.180;2022-09-03T00:40:55;19.00;99.90
13251;DHT22;6692;50.710;7.180;2022-09-03T00:43:02;18.90;99.90
13251;DHT22;6692;50.710;7.180;2022-09-03T00:45:09;18.90;99.90
13251;DHT22;6692;50.710;7.180;2022-09-03T00:47:11;18.90;99.90
13251;DHT22;6692;50.710;7.180;2022-09-03T00:51:50;18.80;99.90
13251;DHT22;6692;50.710;7.180;2022-09-03T00:53:58;18.40;99.90
13251;DHT22;6692;50.710;7.180;2022-09-03T00:55:57;18.40;99.90
13251;DHT22;6692;50.710;7.180;2022-09-03T01:00:17;18.50;99.90
13251;DHT22;6692;50.710;7.180;2022-09-03T01:04:58;18.50;99.60
13251;DHT22;6692;50.710;7.180;2022-09-03T01:07:02;18.40;99.70
13251;DHT22;6692;50.710;7.180;2022-09-03T01:11:38;18.30;99.80
13251;DHT22;6692;50.710;7.180;2022-09-03T01:13:44;18.30;99.90
13251;DHT22;6692;50.710;7.180;2022-09-03T01:15:47;18.30;99.70
13251;DHT22;6692;50.710;7.180;2022-09-03T01:17:48;18.30;99.70
13251;DHT22;6692;50.710;7.180;2022-09-03T01:19:57;18.20;99.80
13251;DHT22;6692;50.710;7.180;2022-09-03T01:22:08;18.20;99.80
13251;DHT22;6692;50.710;7.180;2022-09-03T01:24:25;18.20;99.90
13251;DHT22;6692;50.710;7.180;2022-09-03T01:26:27;18.20;99.90
13251;DHT22;6692;50.710;7.180;2022-09-03T01:30:43;18.10;99.90
13251;DHT22;6692;50.710;7.180;2022-09-03T01:32:50;18.00;99.90
13251;DHT22;6692;50.710;7.180;2022-09-03T01:34:58;18.00;99.90
13251;DHT22;6692;50.710;7.180;2022-09-03T01:37:16;18.00;99.90
13251;DHT22;6692;50.710;7.180;2022-09-03T01:39:20;18.00;99.90
13251;DHT22;6692;50.710;7.180;2022-09-03T01:41:33;18.00;99.90
13251;DHT22;6692;50.710;7.180;2022-09-03T01:43:44;18.10;99.90
13251;DHT22;6692;50.710;7.180;2022-09-03T01:46:00;18.20;99.90
13251;DHT22;6692;50.710;7.180;2022-09-03T01:48:13;18.20;99.90
13251;DHT22;6692;50.710;7.180;2022-09-03T01:50:18;18.20;99.90
13251;DHT22;6692;50.710;7.180;2022-09-03T01:52:20;18.20;99.90
13251;DHT22;6692;50.710;7.180;2022-09-03T01:59:03;18.20;99.90
13251;DHT22;6692;50.710;7.180;2022-09-03T02:01:04;18.30;99.90
13251;DHT22;6692;50.710;7.180;2022-09-03T02:03:04;18.30;99.90
13251;DHT22;6692;50.710;7.180;2022-09-03T02:05:12;18.40;99.90
13251;DHT22;6692;50.710;7.180;2022-09-03T02:07:10;18.30;99.90
13251;DHT22;6692;50.710;7.180;2022-09-03T02:09:11;18.30;99.90
13251;DHT22;6692;50.710;7.180;2022-09-03T02:11:12;18.30;99.60
13251;DHT22;6692;50.710;7.180;2022-09-03T02:13:17;18.30;99.70
13251;DHT22;6692;50.710;7.180;2022-09-03T02:15:16;18.30;99.70
13251;DHT22;6692;50.710;7.180;2022-09-03T02:17:16;18.30;99.90
13251;DHT22;6692;50.710;7.180;2022-09-03T02:19:18;18.30;99.90
13251;DHT22;6692;50.710;7.180;2022-09-03T02:21:19;18.40;99.90
13251;DHT22;6692;50.710;7.180;2022-09-03T02:23:19;18.40;99.90
13251;DHT22;6692;50.710;7.180;2022-09-03T02:25:20;18.30;99.90
13251;DHT22;6692;50.710;7.180;2022-09-03T02:27:21;18.30;99.40
13251;DHT22;6692;50.710;7.180;2022-09-03T02:29:21;18.30;99.80
13251;DHT22;6692;50.710;7.180;2022-09-03T02:31:22;18.30;99.40
13251;DHT22;6692;50.710;7.180;2022-09-03T02:33:23;18.20;99.70
13251;DHT22;6692;50.710;7.180;2022-09-03T02:35:23;18.20;99.60
13251;DHT22;6692;50.710;7.180;2022-09-03T02:37:24;18.10;99.70
13251;DHT22;6692;50.710;7.180;2022-09-03T02:39:24;18.00;99.90
13251;DHT22;6692;50.710;7.180;2022-09-03T02:41:25;18.10;99.90
13251;DHT22;6692;50.710;7.180;2022-09-03T02:43:30;18.00;99.90
13251;DHT22;6692;50.710;7.180;2022-09-03T02:45:27;17.90;99.90
13251;DHT22;6692;50.710;7.180;2022-09-03T02:47:29;17.80;99.90
13251;DHT22;6692;50.710;7.180;2022-09-03T02:49:30;17.80;99.90
13251;DHT22;6692;50.710;7.180;2022-09-03T02:51:33;17.80;99.90
13251;DHT22;6692;50.710;7.180;2022-09-03T02:53:32;17.80;99.90
13251;DHT22;6692;50.710;7.180;2022-09-03T02:55:33;17.80;99.90
13251;DHT22;6692;50.710;7.180;2022-09-03T02:57:34;17.70;99.90
13251;DHT22;6692;50.710;7.180;2022-09-03T02:59:36;17.70;99.90
13251;DHT22;6692;50.710;7.180;2022-09-03T03:01:36;17.60;99.90
13251;DHT22;6692;50.710;7.180;2022-09-03T03:03:38;17.70;99.90
13251;DHT22;6692;50.710;7.180;2022-09-03T03:05:44;17.60;99.90
13251;DHT22;6692;50.710;7.180;2022-09-03T03:07:42;17.60;99.90
13251;DHT22;6692;50.710;7.180;2022-09-03T03:09:43;17.60;99.90
13251;DHT22;6692;50.710;7.180;2022-09-03T03:11:44;17.50;99.90
13251;DHT22;6692;50.710;7.180;2022-09-03T03:13:46;17.60;99.90
13251;DHT22;6692;50.710;7.180;2022-09-03T03:15:46;17.60;99.90
13251;DHT22;6692;50.710;7.180;2022-09-03T03:17:47;17.60;99.90
13251;DHT22;6692;50.710;7.180;2022-09-03T03:19:48;17.60;99.90
13251;DHT22;6692;50.710;7.180;2022-09-03T03:21:50;17.60;99.90
13251;DHT22;6692;50.710;7.180;2022-09-03T03:23:50;17.50;99.90
13251;DHT22;6692;50.710;7.180;2022-09-03T03:25:51;17.50;99.90
13251;DHT22;6692;50.710;7.180;2022-09-03T03:27:53;17.50;99.90
13251;DHT22;6692;50.710;7.180;2022-09-03T03:29:52;17.50;99.90
13251;DHT22;6692;50.710;7.180;2022-09-03T03:31:53;17.60;99.90
13251;DHT22;6692;50.710;7.180;2022-09-03T03:33:55;17.60;99.90
13251;DHT22;6692;50.710;7.180;2022-09-03T03:35:55;17.60;99.90
13251;DHT22;6692;50.710;7.180;2022-09-03T03:37:57;17.50;99.90
13251;DHT22;6692;50.710;7.180;2022-09-03T03:39:57;17.70;99.90
13251;DHT22;6692;50.710;7.180;2022-09-03T03:41:58;17.80;99.90
13251;DHT22;6692;50.710;7.180;2022-09-03T03:43:59;17.80;99.90
13251;DHT22;6692;50.710;7.180;2022-09-03T03:46:00;17.80;99.90
13251;DHT22;6692;50.710;7.180;2022-09-03T03:48:00;17.80;99.90
13251;DHT22;6692;50.710;7.180;2022-09-03T03:50:01;17.90;99.90
13251;DHT22;6692;50.710;7.180;2022-09-03T03:52:02;17.90;99.90
13251;DHT22;6692;50.710;7.180;2022-09-03T03:54:03;17.90;99.90
13251;DHT22;6692;50.710;7.180;2022-09-03T03:56:04;17.90;99.90
13251;DHT22;6692;50.710;7.180;2022-09-03T03:58:04;17.90;99.90
13251;DHT22;6692;50.710;7.180;2022-09-03T04:00:06;18.00;99.90
13251;DHT22;6692;50.710;7.180;2022-09-03T04:02:06;18.00;99.90
13251;DHT22;6692;50.710;7.180;2022-09-03T04:04:08;18.00;99.90
13251;DHT22;6692;50.710;7.180;2022-09-03T04:06:10;18.00;99.90
13251;DHT22;6692;50.710;7.180;2022-09-03T04:08:10;18.00;99.90
13251;DHT22;6692;50.710;7.180;2022-09-03T04:10:10;18.00;99.90
13251;DHT22;6692;50.710;7.180;2022-09-03T04:12:11;18.00;99.90
13251;DHT22;6692;50.710;7.180;2022-09-03T04:14:12;18.10;99.90
13251;DHT22;6692;50.710;7.180;2022-09-03T04:16:17;18.10;99.90
13251;DHT22;6692;50.710;7.180;2022-09-03T04:18:16;18.10;99.90
13251;DHT22;6692;50.710;7.180;2022-09-03T04:20:17;18.00;99.90
13251;DHT22;6692;50.710;7.180;2022-09-03T04:22:18;18.00;99.90
13251;DHT22;6692;50.710;7.180;2022-09-03T04:24:18;18.00;99.90
13251;DHT22;6692;50.710;7.180;2022-09-03T04:26:20;18.00;99.90
13251;DHT22;6692;50.710;7.180;2022-09-03T04:28:20;18.00;99.90
13251;DHT22;6692;50.710;7.180;2022-09-03T04:30:20;18.00;99.90
13251;DHT22;6692;50.710;7.180;2022-09-03T04:32:21;17.90;99.90
13251;DHT22;6692;50.710;7.180;2022-09-03T04:34:28;18.00;99.90
13251;DHT22;6692;50.710;7.180;2022-09-03T04:36:29;18.00;99.90
13251;DHT22;6692;50.710;7.180;2022-09-03T04:38:29;18.00;99.90
13251;DHT22;6692;50.710;7.180;2022-09-03T04:40:30;18.00;99.90
13251;DHT22;6692;50.710;7.180;2022-09-03T04:42:31;17.90;99.90
13251;DHT22;6692;50.710;7.180;2022-09-03T04:44:32;17.90;99.90
13251;DHT22;6692;50.710;7.180;2022-09-03T04:46:34;17.90;99.90
13251;DHT22;6692;50.710;7.180;2022-09-03T04:48:35;18.00;99.90
13251;DHT22;6692;50.710;7.180;2022-09-03T04:50:36;18.00;99.90
13251;DHT22;6692;50.710;7.180;2022-09-03T04:52:36;18.00;99.90
13251;DHT22;6692;50.710;7.180;2022-09-03T04:54:38;18.10;99.90
13251;DHT22;6692;50.710;7.180;2022-09-03T04:56:38;18.10;99.90
13251;DHT22;6692;50.710;7.180;2022-09-03T04:58:40;18.20;99.90
13251;DHT22;6692;50.710;7.180;2022-09-03T05:00:40;18.20;99.90
13251;DHT22;6692;50.710;7.180;2022-09-03T05:02:41;18.20;99.90
13251;DHT22;6692;50.710;7.180;2022-09-03T05:04:42;18.30;99.90
13251;DHT22;6692;50.710;7.180;2022-09-03T05:06:43;18.30;99.90
13251;DHT22;6692;50.710;7.180;2022-09-03T05:08:48;18.40;99.90
13251;DHT22;6692;50.710;7.180;2022-09-03T05:10:49;18.40;99.90
13251;DHT22;6692;50.710;7.180;2022-09-03T05:12:57;18.50;99.90
13251;DHT22;6692;50.710;7.180;2022-09-03T05:14:57;18.40;99.90
13251;DHT22;6692;50.710;7.180;2022-09-03T05:16:58;18.50;99.90
13251;DHT22;6692;50.710;7.180;2022-09-03T05:18:59;18.50;99.90
13251;DHT22;6692;50.710;7.180;2022-09-03T05:21:01;18.50;99.90
13251;DHT22;6692;50.710;7.180;2022-09-03T05:23:01;18.60;99.90
13251;DHT22;6692;50.710;7.180;2022-09-03T05:25:02;18.70;99.90
13251;DHT22;6692;50.710;7.180;2022-09-03T05:27:03;18.70;99.90
13251;DHT22;6692;50.710;7.180;2022-09-03T05:29:04;18.70;99.90
13251;DHT22;6692;50.710;7.180;2022-09-03T05:31:07;18.80;99.90
13251;DHT22;6692;50.710;7.180;2022-09-03T05:33:06;18.80;99.90
13251;DHT22;6692;50.710;7.180;2022-09-03T05:35:07;18.90;99.90
13251;DHT22;6692;50.710;7.180;2022-09-03T05:37:08;18.90;99.90
13251;DHT22;6692;50.710;7.180;2022-09-03T05:39:08;19.00;99.90
13251;DHT22;6692;50.710;7.180;2022-09-03T05:41:10;18.90;99.90
13251;DHT22;6692;50.710;7.180;2022-09-03T05:43:09;19.00;99.90
13251;DHT22;6692;50.710;7.180;2022-09-03T05:45:10;19.00;99.90
13251;DHT22;6692;50.710;7.180;2022-09-03T05:47:11;19.00;99.90
13251;DHT22;6692;50.710;7.180;2022-09-03T05:49:12;19.10;99.90
13251;DHT22;6692;50.710;7.180;2022-09-03T05:51:14;19.10;99.90
13251;DHT22;6692;50.710;7.180;2022-09-03T05:53:15;19.20;99.90
13251;DHT22;6692;50.710;7.180;2022-09-03T05:55:16;19.20;99.90
13251;DHT22;6692;50.710;7.180;2022-09-03T05:57:16;19.20;99.90
13251;DHT22;6692;50.710;7.180;2022-09-03T05:59:17;19.20;99.90
13251;DHT22;6692;50.710;7.180;2022-09-03T06:01:21;19.30;99.90
13251;DHT22;6692;50.710;7.180;2022-09-03T06:03:21;19.30;99.90
13251;DHT22;6692;50.710;7.180;2022-09-03T06:05:22;19.30;99.90
13251;DHT22;6692;50.710;7.180;2022-09-03T06:07:23;19.30;99.90
13251;DHT22;6692;50.710;7.180;2022-09-03T06:09:23;19.20;99.90
13251;DHT22;6692;50.710;7.180;2022-09-03T06:11:24;19.20;99.90
13251;DHT22;6692;50.710;7.180;2022-09-03T06:13:24;19.20;99.90
13251;DHT22;6692;50.710;7.180;2022-09-03T06:15:26;19.20;99.90
13251;DHT22;6692;50.710;7.180;2022-09-03T06:17:27;19.20;99.90
13251;DHT22;6692;50.710;7.180;2022-09-03T06:19:28;19.20;99.90
13251;DHT22;6692;50.710;7.180;2022-09-03T06:21:28;19.20;99.90
13251;DHT22;6692;50.710;7.180;2022-09-03T06:23:29;19.30;99.90
13251;DHT22;6692;50.710;7.180;2022-09-03T06:25:30;19.20;99.90
13251;DHT22;6692;50.710;7.180;2022-09-03T06:27:30;19.30;99.90
13251;DHT22;6692;50.710;7.180;2022-09-03T06:29:31;19.30;99.90
13251;DHT22;6692;50.710;7.180;2022-09-03T06:31:32;19.30;99.90
13251;DHT22;6692;50.710;7.180;2022-09-03T06:33:34;19.30;99.90
13251;DHT22;6692;50.710;7.180;2022-09-03T06:35:33;19.30;99.90
13251;DHT22;6692;50.710;7.180;2022-09-03T06:37:38;19.30;99.90
13251;DHT22;6692;50.710;7.180;2022-09-03T06:39:39;19.40;99.90
13251;DHT22;6692;50.710;7.180;2022-09-03T06:41:39;19.40;99.90
13251;DHT22;6692;50.710;7.180;2022-09-03T06:43:40;19.50;99.90
13251;DHT22;6692;50.710;7.180;2022-09-03T06:45:40;19.50;99.90
13251;DHT22;6692;50.710;7.180;2022-09-03T06:47:41;19.60;99.90
13251;DHT22;6692;50.710;7.180;2022-09-03T06:49:42;19.70;99.90
13251;DHT22;6692;50.710;7.180;2022-09-03T06:51:42;19.80;99.90
13251;DHT22;6692;50.710;7.180;2022-09-03T06:53:44;19.90;99.90
13251;DHT22;6692;50.710;7.180;2022-09-03T06:55:51;20.00;99.90
13251;DHT22;6692;50.710;7.180;2022-09-03T06:57:44;20.00;99.90
13251;DHT22;6692;50.710;7.180;2022-09-03T06:59:45;20.10;99.90
13251;DHT22;6692;50.710;7.180;2022-09-03T07:01:46;20.20;99.90
13251;DHT22;6692;50.710;7.180;2022-09-03T07:03:47;20.20;99.90
13251;DHT22;6692;50.710;7.180;2022-09-03T07:05:47;20.20;99.90
13251;DHT22;6692;50.710;7.180;2022-09-03T07:07:49;20.20;99.90
13251;DHT22;6692;50.710;7.180;2022-09-03T07:09:49;20.20;99.90
13251;DHT22;6692;50.710;7.180;2022-09-03T07:11:50;20.20;99.90
13251;DHT22;6692;50.710;7.180;2022-09-03T07:13:51;20.20;99.90
13251;DHT22;6692;50.710;7.180;2022-09-03T07:15:57;20.00;99.90
13251;DHT22;6692;50.710;7.180;2022-09-03T07:17:57;19.80;99.90
13251;DHT22;6692;50.710;7.180;2022-09-03T07:19:57;19.60;99.90
13251;DHT22;6692;50.710;7.180;2022-09-03T07:21:59;19.20;99.90
13251;DHT22;6692;50.710;7.180;2022-09-03T07:23:59;19.20;99.90
13251;DHT22;6692;50.710;7.180;2022-09-03T07:26:01;19.10;99.90
13251;DHT22;6692;50.710;7.180;2022-09-03T07:28:01;18.90;99.90
13251;DHT22;6692;50.710;7.180;2022-09-03T07:30:02;18.80;99.90
13251;DHT22;6692;50.710;7.180;2022-09-03T07:32:03;18.70;99.90
13251;DHT22;6692;50.710;7.180;2022-09-03T07:34:04;18.40;99.90
13251;DHT22;6692;50.710;7.180;2022-09-03T07:36:07;17.90;99.90
13251;DHT22;6692;50.710;7.180;2022-09-03T07:38:07;17.90;99.90
13251;DHT22;6692;50.710;7.180;2022-09-03T07:40:09;17.80;99.90
13251;DHT22;6692;50.710;7.180;2022-09-03T07:42:09;17.70;99.90
13251;DHT22;6692;50.710;7.180;2022-09-03T07:44:12;17.80;99.90
13251;DHT22;6692;50.710;7.180;2022-09-03T07:46:15;17.70;99.90
13251;DHT22;6692;50.710;7.180;2022-09-03T07:48:15;17.70;99.90
13251;DHT22;6692;50.710;7.180;2022-09-03T07:50:16;17.70;99.90
13251;DHT22;6692;50.710;7.180;2022-09-03T07:52:17;17.70;99.90
13251;DHT22;6692;50.710;7.180;2022-09-03T07:54:18;17.70;99.90
13251;DHT22;6692;50.710;7.180;2022-09-03T07:56:19;17.70;99.90
13251;DHT22;6692;50.710;7.180;2022-09-03T07:58:19;17.70;99.90
13251;DHT22;6692;50.710;7.180;2022-09-03T08:00:21;17.70;99.90
13251;DHT22;6692;50.710;7.180;2022-09-03T08:02:22;17.70;99.90
13251;DHT22;6692;50.710;7.180;2022-09-03T08:04:23;17.70;99.90
13251;DHT22;6692;50.710;7.180;2022-09-03T08:06:25;17.70;99.90
13251;DHT22;6692;50.710;7.180;2022-09-03T08:08:25;17.80;99.90
13251;DHT22;6692;50.710;7.180;2022-09-03T08:10:26;17.80;99.90
13251;DHT22;6692;50.710;7.180;2022-09-03T08:12:26;17.70;99.90
13251;DHT22;6692;50.710;7.180;2022-09-03T08:14:27;17.70;99.90
13251;DHT22;6692;50.710;7.180;2022-09-03T08:16:28;17.80;99.90
13251;DHT22;6692;50.710;7.180;2022-09-03T08:18:28;17.90;99.90
13251;DHT22;6692;50.710;7.180;2022-09-03T08:20:28;17.90;99.90
13251;DHT22;6692;50.710;7.180;2022-09-03T08:22:29;18.00;99.90
13251;DHT22;6692;50.710;7.180;2022-09-03T08:24:30;18.10;99.90
13251;DHT22;6692;50.710;7.180;2022-09-03T08:26:32;18.20;99.90
13251;DHT22;6692;50.710;7.180;2022-09-03T08:28:31;18.30;99.90
13251;DHT22;6692;50.710;7.180;2022-09-03T08:30:32;18.30;99.90
13251;DHT22;6692;50.710;7.180;2022-09-03T08:32:33;18.40;99.90
13251;DHT22;6692;50.710;7.180;2022-09-03T08:34:34;18.40;99.90
13251;DHT22;6692;50.710;7.180;2022-09-03T08:36:35;18.40;99.90
13251;DHT22;6692;50.710;7.180;2022-09-03T08:38:35;18.50;99.90
13251;DHT22;6692;50.710;7.180;2022-09-03T08:40:36;18.50;99.90
13251;DHT22;6692;50.710;7.180;2022-09-03T08:42:48;18.50;99.90
13251;DHT22;6692;50.710;7.180;2022-09-03T08:44:48;18.50;99.90
13251;DHT22;6692;50.710;7.180;2022-09-03T08:47:06;18.60;99.90
13251;DHT22;6692;50.710;7.180;2022-09-03T08:49:05;18.60;99.90
13251;DHT22;6692;50.710;7.180;2022-09-03T08:51:07;18.70;99.90
13251;DHT22;6692;50.710;7.180;2022-09-03T08:53:11;18.70;99.90
13251;DHT22;6692;50.710;7.180;2022-09-03T08:55:26;18.80;99.90
13251;DHT22;6692;50.710;7.180;2022-09-03T08:57:26;18.80;99.90
13251;DHT22;6692;50.710;7.180;2022-09-03T08:59:28;18.90;99.90
13251;DHT22;6692;50.710;7.180;2022-09-03T09:01:45;19.10;99.90
13251;DHT22;6692;50.710;7.180;2022-09-03T09:03:52;19.10;99.90
13251;DHT22;6692;50.710;7.180;2022-09-03T09:05:53;19.30;99.90
13251;DHT22;6692;50.710;7.180;2022-09-03T09:08:00;19.30;99.90
13251;DHT22;6692;50.710;7.180;2022-09-03T09:10:15;19.40;99.90
13251;DHT22;6692;50.710;7.180;2022-09-03T09:12:22;19.30;99.90
13251;DHT22;6692;50.710;7.180;2022-09-03T09:14:27;19.50;99.90
13251;DHT22;6692;50.710;7.180;2022-09-03T09:16:35;19.50;99.90
13251;DHT22;6692;50.710;7.180;2022-09-03T09:18:41;19.60;99.90
13251;DHT22;6692;50.710;7.180;2022-09-03T09:20:44;19.70;99.90
13251;DHT22;6692;50.710;7.180;2022-09-03T09:22:46;19.90;99.90
13251;DHT22;6692;50.710;7.180;2022-09-03T09:24:44;20.10;99.90
13251;DHT22;6692;50.710;7.180;2022-09-03T09:26:45;20.30;99.90
13251;DHT22;6692;50.710;7.180;2022-09-03T09:28:48;20.30;99.90
13251;DHT22;6692;50.710;7.180;2022-09-03T09:30:48;20.30;99.90
13251;DHT22;6692;50.710;7.180;2022-09-03T09:32:47;20.40;99.90
13251;DHT22;6692;50.710;7.180;2022-09-03T09:34:48;20.40;99.90
13251;DHT22;6692;50.710;7.180;2022-09-03T09:36:51;20.50;99.90
13251;DHT22;6692;50.710;7.180;2022-09-03T09:38:50;20.40;99.90
13251;DHT22;6692;50.710;7.180;2022-09-03T09:40:51;20.40;99.90
13251;DHT22;6692;50.710;7.180;2022-09-03T09:43:02;20.40;99.90
13251;DHT22;6692;50.710;7.180;2022-09-03T09:44:52;20.30;99.90
13251;DHT22;6692;50.710;7.180;2022-09-03T09:47:00;20.20;99.90
13251;DHT22;6692;50.710;7.180;2022-09-03T09:48:55;20.20;99.90
13251;DHT22;6692;50.710;7.180;2022-09-03T09:53:09;20.20;99.90
13251;DHT22;6692;50.710;7.180;2022-09-03T09:55:12;20.20;99.90
13251;DHT22;6692;50.710;7.180;2022-09-03T09:57:15;20.10;99.90
13251;DHT22;6692;50.710;7.180;2022-09-03T09:59:14;20.20;99.90
13251;DHT22;6692;50.710;7.180;2022-09-03T10:01:21;20.20;99.90
13251;DHT22;6692;50.710;7.180;2022-09-03T10:03:21;20.30;99.90
13251;DHT22;6692;50.710;7.180;2022-09-03T10:05:24;20.40;99.90
13251;DHT22;6692;50.710;7.180;2022-09-03T10:07:26;20.40;99.90
13251;DHT22;6692;50.710;7.180;2022-09-03T10:09:27;20.40;99.90
13251;DHT22;6692;50.710;7.180;2022-09-03T10:11:27;20.40;99.90
13251;DHT22;6692;50.710;7.180;2022-09-03T10:13:31;20.40;99.90
13251;DHT22;6692;50.710;7.180;2022-09-03T10:15:36;20.40;99.90
13251;DHT22;6692;50.710;7.180;2022-09-03T10:17:46;20.50;99.90
13251;DHT22;6692;50.710;7.180;2022-09-03T10:19:49;20.50;99.90
13251;DHT22;6692;50.710;7.180;2022-09-03T10:21:53;20.60;99.90
13251;DHT22;6692;50.710;7.180;2022-09-03T10:23:56;20.50;99.90
13251;DHT22;6692;50.710;7.180;2022-09-03T10:26:01;20.60;99.90
13251;DHT22;6692;50.710;7.180;2022-09-03T10:27:59;20.70;99.90
13251;DHT22;6692;50.710;7.180;2022-09-03T10:30:00;21.00;99.90
13251;DHT22;6692;50.710;7.180;2022-09-03T10:32:06;21.20;99.90
13251;DHT22;6692;50.710;7.180;2022-09-03T10:36:30;21.50;99.90
13251;DHT22;6692;50.710;7.180;2022-09-03T10:38:30;21.50;99.90
13251;DHT22;6692;50.710;7.180;2022-09-03T10:40:51;21.50;99.90
13251;DHT22;6692;50.710;7.180;2022-09-03T10:43:03;21.70;99.90
13251;DHT22;6692;50.710;7.180;2022-09-03T10:45:30;21.70;99.90
13251;DHT22;6692;50.710;7.180;2022-09-03T10:47:38;21.70;99.90
13251;DHT22;6692;50.710;7.180;2022-09-03T10:49:42;21.70;99.90
13251;DHT22;6692;50.710;7.180;2022-09-03T10:51:41;21.70;99.90
13251;DHT22;6692;50.710;7.180;2022-09-03T10:53:59;21.70;99.90
13251;DHT22;6692;50.710;7.180;2022-09-03T10:56:00;21.70;99.90
13251;DHT22;6692;50.710;7.180;2022-09-03T10:58:07;21.70;99.90
13251;DHT22;6692;50.710;7.180;2022-09-03T11:00:06;21.60;99.90
13251;DHT22;6692;50.710;7.180;2022-09-03T11:04:55;21.60;99.90
13251;DHT22;6692;50.710;7.180;2022-09-03T11:06:58;21.70;99.90
13251;DHT22;6692;50.710;7.180;2022-09-03T11:09:04;21.80;99.90
13251;DHT22;6692;50.710;7.180;2022-09-03T11:11:09;21.80;99.90
13251;DHT22;6692;50.710;7.180;2022-09-03T11:13:12;21.90;99.90
13251;DHT22;6692;50.710;7.180;2022-09-03T11:15:19;21.90;99.90
13251;DHT22;6692;50.710;7.180;2022-09-03T11:17:20;22.00;99.90
13251;DHT22;6692;50.710;7.180;2022-09-03T11:19:17;22.30;99.90
13251;DHT22;6692;50.710;7.180;2022-09-03T11:21:20;22.40;99.90
13251;DHT22;6692;50.710;7.180;2022-09-03T11:23:20;22.40;99.90
13251;DHT22;6692;50.710;7.180;2022-09-03T11:25:21;22.50;99.90
13251;DHT22;6692;50.710;7.180;2022-09-03T11:27:31;22.40;99.90
13251;DHT22;6692;50.710;7.180;2022-09-03T11:29:35;22.40;99.90
13251;DHT22;6692;50.710;7.180;2022-09-03T11:31:58;22.40;99.90
13251;DHT22;6692;50.710;7.180;2022-09-03T11:34:00;22.40;99.90
13251;DHT22;6692;50.710;7.180;2022-09-03T11:36:00;22.50;99.90
13251;DHT22;6692;50.710;7.180;2022-09-03T11:38:05;22.80;99.90
13251;DHT22;6692;50.710;7.180;2022-09-03T11:40:09;22.70;99.90
13251;DHT22;6692;50.710;7.180;2022-09-03T11:42:10;22.90;99.90
13251;DHT22;6692;50.710;7.180;2022-09-03T11:44:15;23.10;99.90
13251;DHT22;6692;50.710;7.180;2022-09-03T11:46:13;23.20;99.90
13251;DHT22;6692;50.710;7.180;2022-09-03T11:48:16;23.30;99.90
13251;DHT22;6692;50.710;7.180;2022-09-03T11:50:22;23.20;99.90
13251;DHT22;6692;50.710;7.180;2022-09-03T11:52:27;23.20;99.90
13251;DHT22;6692;50.710;7.180;2022-09-03T11:54:27;23.10;99.90
13251;DHT22;6692;50.710;7.180;2022-09-03T11:56:28;22.90;99.90
13251;DHT22;6692;50.710;7.180;2022-09-03T11:58:34;22.70;99.90
13251;DHT22;6692;50.710;7.180;2022-09-03T12:00:34;22.60;99.90
13251;DHT22;6692;50.710;7.180;2022-09-03T12:02:34;22.40;99.90
13251;DHT22;6692;50.710;7.180;2022-09-03T12:04:39;22.40;99.90
13251;DHT22;6692;50.710;7.180;2022-09-03T12:06:48;22.30;99.90
13251;DHT22;6692;50.710;7.180;2022-09-03T12:09:16;22.30;99.90
13251;DHT22;6692;50.710;7.180;2022-09-03T12:11:23;22.30;99.90
13251;DHT22;6692;50.710;7.180;2022-09-03T12:13:28;22.20;99.90
13251;DHT22;6692;50.710;7.180;2022-09-03T12:15:35;22.20;99.90
13251;DHT22;6692;50.710;7.180;2022-09-03T12:17:34;22.20;99.90
13251;DHT22;6692;50.710;7.180;2022-09-03T12:19:50;22.10;99.90
13251;DHT22;6692;50.710;7.180;2022-09-03T12:21:51;22.10;99.90
13251;DHT22;6692;50.710;7.180;2022-09-03T12:23:52;22.10;99.90
13251;DHT22;6692;50.710;7.180;2022-09-03T12:25:52;22.20;99.90
13251;DHT22;6692;50.710;7.180;2022-09-03T12:27:53;22.10;99.90
13251;DHT22;6692;50.710;7.180;2022-09-03T12:29:57;22.20;99.90
13251;DHT22;6692;50.710;7.180;2022-09-03T12:32:04;22.20;99.90
13251;DHT22;6692;50.710;7.180;2022-09-03T12:33:58;22.30;99.90
13251;DHT22;6692;50.710;7.180;2022-09-03T12:35:59;22.30;99.90
13251;DHT22;6692;50.710;7.180;2022-09-03T12:37:59;22.40;99.90
13251;DHT22;6692;50.710;7.180;2022-09-03T12:40:01;22.60;99.90
13251;DHT22;6692;50.710;7.180;2022-09-03T12:42:04;22.60;99.90
13251;DHT22;6692;50.710;7.180;2022-09-03T12:44:04;22.70;99.90
13251;DHT22;6692;50.710;7.180;2022-09-03T12:46:12;23.00;99.90
13251;DHT22;6692;50.710;7.180;2022-09-03T12:48:11;23.00;99.90
13251;DHT22;6692;50.710;7.180;2022-09-03T12:50:09;23.20;99.90
13251;DHT22;6692;50.710;7.180;2022-09-03T12:52:27;23.40;99.90
13251;DHT22;6692;50.710;7.180;2022-09-03T12:54:28;24.10;99.90
13251;DHT22;6692;50.710;7.180;2022-09-03T12:56:29;24.30;99.90
13251;DHT22;6692;50.710;7.180;2022-09-03T12:58:33;24.30;99.90
13251;DHT22;6692;50.710;7.180;2022-09-03T13:00:33;24.50;99.90
13251;DHT22;6692;50.710;7.180;2022-09-03T13:02:51;24.80;99.90
13251;DHT22;6692;50.710;7.180;2022-09-03T13:04:50;24.80;99.90
13251;DHT22;6692;50.710;7.180;2022-09-03T13:06:55;25.20;99.90
13251;DHT22;6692;50.710;7.180;2022-09-03T13:08:56;26.00;99.90
13251;DHT22;6692;50.710;7.180;2022-09-03T13:10:57;27.30;99.90
13251;DHT22;6692;50.710;7.180;2022-09-03T13:12:59;28.30;99.90
13251;DHT22;6692;50.710;7.180;2022-09-03T13:15:04;28.90;99.90
13251;DHT22;6692;50.710;7.180;2022-09-03T13:17:05;29.00;99.90
13251;DHT22;6692;50.710;7.180;2022-09-03T13:19:05;29.30;99.90
13251;DHT22;6692;50.710;7.180;2022-09-03T13:21:08;29.50;99.90
13251;DHT22;6692;50.710;7.180;2022-09-03T13:25:33;30.20;99.90
13251;DHT22;6692;50.710;7.180;2022-09-03T13:27:38;30.90;99.90
13251;DHT22;6692;50.710;7.180;2022-09-03T13:30:15;31.40;99.90
13251;DHT22;6692;50.710;7.180;2022-09-03T13:33:15;31.70;99.90